Aigaion — SYMC — position and weather

sailwx.info

Track history (hours):
 
Tides and Currents Weather Stations Pressure Air Temp Water Temp Dewpoint Dewpoint Depression Visibility Wind Speed Wind Dir Waves Ship Positions

Aigaion

Last reported at 2016-Feb-04 18:33 UTC. Time now 2016-Feb-09 20:40 UTC.
Position S 17°26' E 116°40'.

Length 289 m; draft 16.8 m.

Type: Cargo ship. MMSI: 240174000.

Date/timePositionNaut miles runAvg speedWind from/ knotsBaromVisibWave heightAir tempDewpointWater temp
2016-Feb-04 18:33S 17°26' E 116°40'161 9.7
2016-Feb-04 02:03S 20°07' E 116°48'6 9.8
2016-Feb-04 01:26S 20°13' E 116°46'9 9.9
2016-Feb-04 00:33S 20°21' E 116°44'1110.6
2016-Feb-03 23:33S 20°31' E 116°42'7 0.2
2016-Feb-02 04:34S 20°38' E 116°42'7 7.4
2016-Feb-02 03:33S 20°31' E 116°43'6 5.2
2016-Feb-02 02:27S 20°25' E 116°43'37 0.7
2016-Jan-31 00:09S 19°49' E 116°52'  
2016-Jan-28 11:31S 19°57' E 116°50'8 7.4
2016-Jan-28 10:25S 20°05' E 116°47'15 7.7
2016-Jan-28 08:28S 20°19' E 116°44'8 9.0
2016-Jan-28 07:32S 20°11' E 116°46'10 9.7
2016-Jan-28 06:33S 20°02' E 116°49'9 8.1
2016-Jan-28 05:28S 19°53' E 116°51'8 8.5
2016-Jan-28 04:33S 19°45' E 116°52'  
Track history (hours):
 
Tides and Currents Weather Stations Pressure Air Temp Water Temp Dewpoint Dewpoint Depression Visibility Wind Speed Wind Dir Waves Ship Positions

Aigaion

Last reported at 2016-Feb-04 18:33 UTC. Time now 2016-Feb-09 20:40 UTC.
Position S 17°26' E 116°40'.

Length 289 m; draft 16.8 m.

Type: Cargo ship. MMSI: 240174000.

Date/timePositionNaut miles runAvg speedWind from/ knotsBaromVisibWave heightAir tempDewpointWater temp
2016-Feb-04 18:33S 17°26' E 116°40'161 9.7
2016-Feb-04 02:03S 20°07' E 116°48'6 9.8
2016-Feb-04 01:26S 20°13' E 116°46'9 9.9
2016-Feb-04 00:33S 20°21' E 116°44'1110.6
2016-Feb-03 23:33S 20°31' E 116°42'7 0.2
2016-Feb-02 04:34S 20°38' E 116°42'7 7.4
2016-Feb-02 03:33S 20°31' E 116°43'6 5.2
2016-Feb-02 02:27S 20°25' E 116°43'37 0.7
2016-Jan-31 00:09S 19°49' E 116°52'  
2016-Jan-28 11:31S 19°57' E 116°50'8 7.4
2016-Jan-28 10:25S 20°05' E 116°47'15 7.7
2016-Jan-28 08:28S 20°19' E 116°44'8 9.0
2016-Jan-28 07:32S 20°11' E 116°46'10 9.7
2016-Jan-28 06:33S 20°02' E 116°49'9 8.1
2016-Jan-28 05:28S 19°53' E 116°51'8 8.5
2016-Jan-28 04:33S 19°45' E 116°52'  

Dump ship's entire track history